Time;durP1;ratioP1;P1;durP2;ratioP2;P2;SDS_P1;SDS_P2;PMS_P1;PMS_P2;Temp;Humidity;BMP_temperature;BMP_pressure;BME280_temperature;BME280_humidity;BME280_pressure;Samples;Min_cycle;Max_cycle;Signal;HPM_P1;HPM_P2
2022/12/06 00:02:42;;;;;;;;;;;6.40;88.90;;;;;;9182803;19;20019;-64
2022/12/06 00:05:45;;;;;;;14.03;7.03;;;6.40;88.80;;;;;;9185085;19;19927;-64
2022/12/06 00:08:51;;;;;;;15.02;6.90;;;6.40;88.70;;;;;;9183771;19;20022;-65
2022/12/06 00:11:58;;;;;;;12.65;6.55;;;6.30;88.80;;;;;;9181695;19;20018;-64
2022/12/06 00:15:02;;;;;;;12.02;6.35;;;6.30;88.90;;;;;;9178931;19;20019;-65
2022/12/06 00:18:06;;;;;;;15.80;7.05;;;6.30;88.90;;;;;;9177500;19;20022;-65
2022/12/06 00:21:11;;;;;;;;;;;6.30;88.90;;;;;;9179274;19;20676;-66
2022/12/06 00:24:16;;;;;;;12.38;6.90;;;6.40;89.00;;;;;;9179106;19;19918;-66
2022/12/06 00:27:22;;;;;;;15.80;7.50;;;6.40;89.00;;;;;;9181196;19;20044;-66
2022/12/06 00:30:26;;;;;;;12.60;6.30;;;6.30;88.90;;;;;;9184377;19;20031;-66
2022/12/06 00:33:30;;;;;;;;;;;6.30;89.00;;;;;;9182326;19;20038;-68
2022/12/06 00:36:36;;;;;;;11.52;6.32;;;6.30;89.00;;;;;;9184623;19;20601;-66
2022/12/06 00:39:40;;;;;;;19.83;7.28;;;6.40;88.90;;;;;;9181831;19;20035;-65
2022/12/06 00:42:45;;;;;;;;;;;6.40;89.00;;;;;;9180871;19;20026;-65
2022/12/06 00:45:49;;;;;;;21.15;8.05;;;6.40;89.00;;;;;;9183759;19;19915;-66
2022/12/06 00:48:55;;;;;;;13.60;7.30;;;6.40;88.90;;;;;;9182618;19;20437;-66
2022/12/06 00:51:59;;;;;;;17.05;7.05;;;6.40;88.90;;;;;;9181955;19;20029;-65
2022/12/06 00:55:02;;;;;;;;;;;6.40;88.90;;;;;;9184350;19;20029;-65
2022/12/06 00:58:08;;;;;;;7.83;4.23;;;6.40;89.00;;;;;;9181322;19;19938;-65
2022/12/06 01:01:14;;;;;;;12.07;6.30;;;6.40;88.90;;;;;;9182200;19;20018;-66
2022/12/06 01:04:18;;;;;;;12.00;6.35;;;6.40;88.90;;;;;;9183390;19;20047;-65
2022/12/06 01:07:22;;;;;;;;;;;6.40;88.90;;;;;;9182996;19;20010;-66
2022/12/06 01:10:26;;;;;;;12.87;6.30;;;6.40;89.00;;;;;;9182041;19;19946;-66
2022/12/06 01:13:32;;;;;;;;;;;6.40;88.90;;;;;;9181792;19;20488;-65
2022/12/06 01:16:36;;;;;;;14.05;6.13;;;6.40;88.90;;;;;;9182924;19;19926;-67
2022/12/06 01:19:39;;;;;;;15.48;6.93;;;6.40;88.80;;;;;;9182481;19;20015;-65
2022/12/06 01:22:43;;;;;;;9.98;5.35;;;6.40;88.90;;;;;;9181759;19;20014;-65
2022/12/06 01:25:51;;;;;;;11.45;5.65;;;6.50;88.90;;;;;;9182733;19;20023;-66
2022/12/06 01:28:58;;;;;;;10.50;5.50;;;6.40;89.00;;;;;;9182016;19;20026;-65
2022/12/06 01:32:02;;;;;;;8.90;5.20;;;6.40;88.90;;;;;;9182054;19;20490;-67
2022/12/06 01:35:07;;;;;;;9.70;5.07;;;6.40;89.00;;;;;;9181018;19;20043;-64
2022/12/06 01:38:11;;;;;;;8.98;5.45;;;6.50;89.10;;;;;;9180821;19;20018;-65
2022/12/06 01:41:15;;;;;;;11.48;5.93;;;6.40;88.90;;;;;;9180335;19;20039;-65
2022/12/06 01:44:44;;;;;;;12.48;5.13;;;6.40;89.00;;;;;;9177992;19;20038;-68
2022/12/06 01:47:48;;;;;;;9.20;5.35;;;6.40;89.00;;;;;;9181927;19;20376;-65
2022/12/06 01:50:53;;;;;;;10.43;5.18;;;6.40;89.00;;;;;;9180196;19;20097;-65
2022/12/06 01:54:00;;;;;;;11.35;5.97;;;6.50;89.10;;;;;;9178051;19;20445;-65
2022/12/06 01:57:06;;;;;;;8.45;5.25;;;6.40;89.10;;;;;;9176463;19;20026;-65
2022/12/06 02:00:13;;;;;;;11.25;5.88;;;6.40;89.10;;;;;;9181681;19;20835;-65
2022/12/06 02:03:20;;;;;;;10.52;5.47;;;6.50;89.20;;;;;;9179832;19;20018;-67
2022/12/06 02:06:24;;;;;;;13.68;5.50;;;6.50;89.70;;;;;;9181786;19;20018;-68
2022/12/06 02:09:29;;;;;;;;;;;6.50;89.10;;;;;;9180408;19;20022;-65
2022/12/06 02:12:32;;;;;;;10.32;5.93;;;6.50;89.10;;;;;;9177869;19;19926;-68
2022/12/06 02:15:49;;;;;;;16.20;5.72;;;6.50;89.00;;;;;;9178701;19;20495;-65
2022/12/06 02:18:57;;;;;;;19.00;6.22;;;6.50;89.10;;;;;;9179046;19;20488;-66
2022/12/06 02:22:08;;;;;;;13.32;6.22;;;6.50;89.10;;;;;;9180440;19;20360;-66
2022/12/06 02:25:38;;;;;;;10.85;6.22;;;6.50;89.20;;;;;;9179681;19;20150;-65
2022/12/06 02:29:31;;;;;;;15.50;6.32;;;6.50;89.20;;;;;;9179264;19;20022;-65
2022/12/06 02:32:43;;;;;;;14.50;5.85;;;6.50;89.20;;;;;;9176313;19;20029;-69
2022/12/06 02:35:53;;;;;;;16.30;6.70;;;6.50;89.10;;;;;;9180288;19;20047;-64
2022/12/06 02:39:04;;;;;;;15.10;5.47;;;6.50;89.20;;;;;;9179056;19;20022;-65
2022/12/06 02:42:13;;;;;;;11.05;5.28;;;6.50;89.10;;;;;;9178443;19;20010;-65
2022/12/06 02:45:20;;;;;;;10.23;5.63;;;6.50;89.20;;;;;;9174261;19;20863;-67
2022/12/06 02:48:27;;;;;;;18.25;6.40;;;6.50;89.20;;;;;;9179623;19;20475;-65
2022/12/06 02:51:33;;;;;;;17.70;5.45;;;6.60;89.20;;;;;;9176377;19;20352;-64
2022/12/06 02:54:37;;;;;;;11.52;5.25;;;6.60;89.20;;;;;;9173919;19;20033;-65
2022/12/06 02:57:42;;;;;;;;;;;6.50;89.20;;;;;;9181467;19;20472;-65
2022/12/06 03:00:47;;;;;;;10.73;4.75;;;6.50;89.10;;;;;;9178697;19;19926;-66
2022/12/06 03:04:30;;;;;;;10.35;5.40;;;6.60;89.10;;;;;;9179329;19;20014;-65
2022/12/06 03:07:38;;;;;;;10.55;4.78;;;6.60;89.20;;;;;;9177630;19;20024;-66
2022/12/06 03:10:47;;;;;;;10.82;5.53;;;6.60;89.10;;;;;;9179028;19;20376;-65
2022/12/06 03:13:55;;;;;;;9.50;4.90;;;6.60;89.20;;;;;;9173355;19;20018;-66
2022/12/06 03:17:21;;;;;;;12.05;4.47;;;6.60;89.20;;;;;;9176652;19;20015;-65
2022/12/06 03:20:41;;;;;;;8.25;4.57;;;6.50;89.20;;;;;;9178021;19;20502;-65
2022/12/06 03:23:48;;;;;;;16.25;5.25;;;6.50;89.20;;;;;;9176346;19;20051;-66
2022/12/06 03:26:53;;;;;;;12.75;5.07;;;6.50;89.10;;;;;;9176862;19;20030;-65
2022/12/06 03:30:02;;;;;;;10.73;5.22;;;6.50;89.20;;;;;;9178575;19;20041;-65
2022/12/06 03:33:06;;;;;;;10.35;5.13;;;6.50;89.20;;;;;;9175957;19;20380;-69
2022/12/06 03:36:13;;;;;;;;;;;6.50;89.20;;;;;;9179175;19;20080;-66
2022/12/06 03:39:26;;;;;;;21.25;4.75;;;6.60;89.20;;;;;;9176711;19;20292;-65
2022/12/06 03:42:32;;;;;;;13.60;4.53;;;6.50;89.10;;;;;;9178053;19;20022;-68
2022/12/06 03:45:41;;;;;;;18.02;5.20;;;6.50;89.10;;;;;;9172599;19;20014;-67
2022/12/06 03:48:47;;;;;;;10.00;4.60;;;6.50;89.20;;;;;;9173983;19;20088;-67
2022/12/06 03:51:53;;;;;;;9.88;5.25;;;6.50;89.20;;;;;;9174182;19;20022;-65
2022/12/06 03:54:57;;;;;;;8.85;3.92;;;6.50;89.20;;;;;;9174344;19;20026;-68
2022/12/06 03:58:01;;;;;;;10.15;4.82;;;6.50;89.30;;;;;;9175884;19;20020;-66
2022/12/06 04:01:05;;;;;;;11.65;4.70;;;6.50;89.30;;;;;;9177190;19;20014;-64
2022/12/06 04:04:10;;;;;;;;;;;6.50;89.30;;;;;;9178255;19;20019;-65
2022/12/06 04:07:19;;;;;;;13.05;3.42;;;6.50;89.30;;;;;;9176574;19;20355;-65
2022/12/06 04:10:23;;;;;;;9.82;3.72;;;6.50;89.20;;;;;;9175872;19;20018;-66
2022/12/06 04:13:27;;;;;;;8.63;3.80;;;6.50;89.20;;;;;;9173347;19;20098;-66
2022/12/06 04:19:53;;;;;;;13.60;3.30;;;6.50;89.30;;;;;;9174027;19;19918;-64
2022/12/06 04:23:03;;;;;;;10.98;4.65;;;6.50;89.10;;;;;;9174584;19;20021;-64
2022/12/06 04:26:08;;;;;;;5.20;2.80;;;6.50;89.20;;;;;;9182226;19;20022;-64
2022/12/06 04:39:05;;;;;;;6.82;3.22;;;6.40;89.20;;;;;;9184690;19;20025;-65
2022/12/06 04:45:26;;;;;;;12.10;2.88;;;6.50;89.30;;;;;;9175457;19;20034;-68
2022/12/06 04:48:30;;;;;;;7.18;3.03;;;6.40;89.30;;;;;;9184760;19;20033;-68
2022/12/06 04:51:34;;;;;;;7.82;2.90;;;6.40;89.30;;;;;;9183439;19;20035;-65
2022/12/06 04:54:39;;;;;;;;;;;6.40;89.30;;;;;;9181906;19;20025;-66
2022/12/06 04:57:43;;;;;;;9.18;3.00;;;6.40;89.30;;;;;;9183835;19;19919;-66
2022/12/06 05:00:47;;;;;;;5.93;2.88;;;6.40;89.20;;;;;;9183383;19;20042;-66
2022/12/06 05:03:51;;;;;;;;;;;6.40;89.20;;;;;;9183552;19;20426;-69
2022/12/06 05:06:54;;;;;;;6.65;2.30;;;6.40;89.20;;;;;;9182168;19;20396;-67
2022/12/06 05:10:00;;;;;;;8.23;2.67;;;6.40;89.20;;;;;;9183629;19;20014;-67
2022/12/06 05:13:04;;;;;;;3.75;2.22;;;6.40;89.20;;;;;;9182746;19;20011;-66
2022/12/06 05:16:10;;;;;;;7.47;2.47;;;6.30;89.20;;;;;;9181584;19;20026;-66
2022/12/06 05:19:15;;;;;;;4.15;2.45;;;6.40;89.20;;;;;;9181422;19;20407;-66
2022/12/06 05:22:18;;;;;;;6.60;2.33;;;6.30;89.20;;;;;;9181476;19;20031;-66
2022/12/06 05:25:24;;;;;;;5.47;2.70;;;6.30;89.20;;;;;;9183457;19;20019;-68
2022/12/06 05:28:28;;;;;;;8.95;2.70;;;6.30;89.30;;;;;;9180916;19;20014;-67
2022/12/06 05:31:32;;;;;;;3.53;2.33;;;6.30;89.30;;;;;;9182337;19;20751;-66
2022/12/06 05:34:36;;;;;;;;;;;6.30;89.30;;;;;;9180844;19;20014;-66
2022/12/06 05:37:39;;;;;;;5.78;2.72;;;6.30;89.30;;;;;;9179947;19;19941;-67
2022/12/06 05:40:45;;;;;;;7.40;2.80;;;6.30;89.20;;;;;;9178850;19;20167;-67
2022/12/06 05:43:49;;;;;;;8.15;3.05;;;6.30;89.20;;;;;;9178410;19;20026;-67
2022/12/06 05:46:53;;;;;;;5.10;2.97;;;6.30;89.20;;;;;;9181941;19;20035;-66
2022/12/06 05:49:57;;;;;;;6.07;3.10;;;6.30;89.30;;;;;;9181851;19;20010;-66
2022/12/06 05:53:01;;;;;;;;;;;6.30;89.30;;;;;;9180443;19;20025;-68
2022/12/06 05:56:08;;;;;;;7.35;3.53;;;6.30;89.30;;;;;;9181669;19;19919;-66
2022/12/06 05:59:12;;;;;;;6.07;3.13;;;6.30;89.20;;;;;;9180808;19;20027;-66
2022/12/06 06:02:16;;;;;;;4.82;2.80;;;6.20;89.10;;;;;;9180643;19;20014;-67
2022/12/06 06:05:20;;;;;;;;;;;6.20;89.20;;;;;;9182065;19;20074;-68
2022/12/06 06:08:23;;;;;;;10.38;3.17;;;6.20;89.20;;;;;;9181384;19;19941;-66
2022/12/06 06:11:29;;;;;;;10.60;3.30;;;6.20;89.10;;;;;;9179559;19;20372;-66
2022/12/06 06:14:33;;;;;;;7.40;3.22;;;6.20;89.10;;;;;;9176871;19;20086;-66
2022/12/06 06:17:36;;;;;;;;;;;6.20;89.20;;;;;;9182598;19;20082;-66
2022/12/06 06:20:40;;;;;;;7.15;3.28;;;6.20;89.20;;;;;;9181189;19;19946;-65
2022/12/06 06:23:44;;;;;;;8.85;3.20;;;6.20;89.10;;;;;;9178662;19;20086;-65
2022/12/06 06:26:50;;;;;;;4.43;3.17;;;6.10;89.10;;;;;;9180849;19;20332;-67
2022/12/06 06:29:53;;;;;;;6.55;3.35;;;6.20;89.20;;;;;;9180972;19;20078;-66
2022/12/06 06:32:57;;;;;;;9.82;3.35;;;6.10;89.20;;;;;;9180195;19;20014;-66
2022/12/06 06:36:01;;;;;;;8.63;3.33;;;6.10;89.20;;;;;;9179618;19;20833;-66
2022/12/06 06:39:04;;;;;;;;;;;6.10;89.20;;;;;;9181844;19;20030;-66
2022/12/06 06:42:10;;;;;;;6.38;2.90;;;6.10;89.30;;;;;;9178654;19;19914;-67
2022/12/06 06:45:14;;;;;;;9.68;3.63;;;6.10;89.10;;;;;;9173820;19;20018;-67
2022/12/06 06:48:18;;;;;;;7.03;3.42;;;6.10;89.20;;;;;;9177052;19;20021;-70
2022/12/06 06:51:21;;;;;;;12.48;4.22;;;6.10;89.20;;;;;;9178260;19;20015;-66
2022/12/06 06:54:26;;;;;;;12.15;4.00;;;6.10;89.30;;;;;;9176774;19;20034;-66
2022/12/06 06:57:34;;;;;;;6.88;3.22;;;6.10;89.30;;;;;;9179911;19;20007;-66
2022/12/06 07:00:37;;;;;;;8.80;3.55;;;6.10;89.30;;;;;;9176768;19;20029;-66
2022/12/06 07:03:41;;;;;;;4.90;3.15;;;6.10;89.30;;;;;;9176521;19;20057;-69
2022/12/06 07:06:45;;;;;;;9.77;3.25;;;6.00;89.30;;;;;;9178539;19;20028;-66
2022/12/06 07:09:50;;;;;;;9.93;3.03;;;6.00;89.30;;;;;;9177786;19;20353;-68
2022/12/06 07:12:55;;;;;;;5.05;3.30;;;6.00;89.30;;;;;;9174725;19;20523;-66
2022/12/06 07:15:59;;;;;;;9.73;3.72;;;6.00;89.30;;;;;;9176491;19;20018;-67
2022/12/06 07:19:03;;;;;;;8.50;3.38;;;6.00;89.30;;;;;;9170654;19;20098;-67
2022/12/06 07:22:12;;;;;;;6.18;3.30;;;6.00;89.40;;;;;;9167199;19;20025;-67
2022/12/06 07:25:16;;;;;;;5.60;3.30;;;6.00;89.40;;;;;;9169203;19;21568;-67
2022/12/06 07:28:21;;;;;;;9.30;3.17;;;6.00;89.40;;;;;;9163065;19;20026;-68
2022/12/06 07:31:27;;;;;;;5.18;2.80;;;6.00;89.40;;;;;;9166683;19;20606;-68
2022/12/06 07:34:32;;;;;;;12.32;3.28;;;6.00;89.40;;;;;;9160340;19;20019;-67
2022/12/06 07:37:35;;;;;;;11.10;4.25;;;6.00;89.40;;;;;;9163925;19;20014;-65
2022/12/06 07:40:39;;;;;;;9.05;3.35;;;6.00;89.40;;;;;;9167104;19;20014;-68
2022/12/06 07:47:22;;;;;;;5.72;3.30;;;6.00;89.30;;;;;;9163025;19;20006;-68
2022/12/06 07:50:26;;;;;;;10.13;3.58;;;6.00;89.30;;;;;;9164839;19;20751;-68
2022/12/06 07:53:30;;;;;;;6.88;3.03;;;6.00;89.30;;;;;;9159762;19;20036;-66
2022/12/06 07:56:33;;;;;;;5.57;3.10;;;6.00;89.30;;;;;;9168441;19;20017;-66
2022/12/06 07:59:39;;;;;;;6.18;3.50;;;6.00;89.30;;;;;;9172330;19;20041;-67
2022/12/06 08:02:43;;;;;;;5.85;3.45;;;6.00;89.40;;;;;;9180587;19;20023;-68
2022/12/06 08:05:54;;;;;;;6.03;2.90;;;6.00;89.40;;;;;;9178144;19;20129;-66
2022/12/06 08:08:58;;;;;;;9.32;3.10;;;6.00;89.40;;;;;;9179014;19;20488;-67
2022/12/06 08:12:02;;;;;;;;;;;6.00;89.40;;;;;;9179891;19;20504;-67
2022/12/06 08:15:11;;;;;;;8.02;3.72;;;6.00;89.40;;;;;;9176568;19;19918;-66
2022/12/06 08:18:15;;;;;;;10.30;3.10;;;6.00;89.30;;;;;;9181349;19;20027;-67
2022/12/06 08:21:19;;;;;;;8.18;3.10;;;5.90;89.20;;;;;;9185943;19;20117;-67
2022/12/06 08:24:23;;;;;;;9.80;3.47;;;5.90;89.30;;;;;;9179390;19;20018;-67
2022/12/06 08:27:27;;;;;;;5.90;3.15;;;5.90;89.30;;;;;;9183038;19;20474;-66
2022/12/06 08:30:33;;;;;;;9.35;3.28;;;5.90;89.30;;;;;;9171904;19;20025;-67
2022/12/06 08:33:38;;;;;;;4.97;3.10;;;5.90;89.90;;;;;;9176219;19;20089;-65
2022/12/06 08:36:42;;;;;;;5.95;3.33;;;5.90;89.30;;;;;;9177072;19;20014;-65
2022/12/06 08:39:45;;;;;;;5.95;3.17;;;5.90;89.30;;;;;;9184908;19;20026;-66
2022/12/06 08:42:49;;;;;;;5.30;3.42;;;5.90;89.30;;;;;;9175464;19;20014;-67
2022/12/06 08:45:55;;;;;;;7.93;3.38;;;5.80;89.30;;;;;;9183369;19;20085;-68
2022/12/06 08:48:59;;;;;;;7.05;3.40;;;5.80;89.30;;;;;;9182184;19;20019;-67
2022/12/06 08:52:02;;;;;;;5.57;3.10;;;5.80;89.30;;;;;;9181321;19;20045;-66
2022/12/06 08:55:07;;;;;;;17.02;5.30;;;5.80;89.30;;;;;;9181702;19;20019;-66
2022/12/06 08:58:11;;;;;;;6.95;3.95;;;5.80;89.30;;;;;;9184314;19;20006;-67
2022/12/06 09:01:19;;;;;;;6.80;3.45;;;5.80;89.30;;;;;;9176001;19;20019;-67
2022/12/06 09:04:23;;;;;;;5.22;3.75;;;5.80;89.30;;;;;;9178135;19;20046;-65
2022/12/06 09:07:27;;;;;;;5.65;3.75;;;5.80;89.30;;;;;;9175548;19;20046;-66
2022/12/06 09:10:31;;;;;;;7.22;4.18;;;5.80;89.40;;;;;;9171923;19;20022;-67
2022/12/06 09:13:36;;;;;;;9.20;4.20;;;5.80;89.30;;;;;;9174247;19;20479;-66
2022/12/06 09:16:43;;;;;;;8.10;4.72;;;5.80;89.30;;;;;;9176309;19;20043;-66
2022/12/06 09:19:46;;;;;;;13.50;4.20;;;5.80;89.30;;;;;;9176166;19;20022;-67
2022/12/06 09:22:50;;;;;;;6.78;3.45;;;5.70;89.30;;;;;;9176050;19;20096;-68
2022/12/06 09:25:54;;;;;;;12.07;4.28;;;5.80;89.30;;;;;;9170226;19;20010;-67
2022/12/06 09:28:58;;;;;;;9.30;3.83;;;5.70;89.30;;;;;;9176101;19;20027;-69
2022/12/06 09:32:04;;;;;;;14.27;4.50;;;5.70;89.30;;;;;;9168918;19;20026;-66
2022/12/06 09:35:09;;;;;;;22.80;5.95;;;5.70;89.30;;;;;;9167506;19;20095;-66
2022/12/06 09:38:19;;;;;;;6.63;4.05;;;5.70;89.30;;;;;;9173288;19;20043;-66
2022/12/06 09:41:38;;;;;;;7.88;3.95;;;5.70;89.30;;;;;;9172791;19;20085;-66
2022/12/06 09:45:09;;;;;;;9.95;4.20;;;5.70;89.40;;;;;;9171582;19;20026;-65
2022/12/06 09:48:43;;;;;;;13.55;5.20;;;5.70;89.40;;;;;;9178818;19;20041;-66
2022/12/06 09:52:14;;;;;;;13.65;5.65;;;5.70;89.40;;;;;;9168983;19;20397;-66
2022/12/06 09:55:30;;;;;;;11.07;4.93;;;5.70;89.40;;;;;;9165916;19;20014;-67
2022/12/06 09:58:56;;;;;;;8.60;4.10;;;5.70;89.50;;;;;;9171795;19;20035;-66
2022/12/06 10:02:20;;;;;;;10.10;4.22;;;5.70;89.60;;;;;;9174102;19;20021;-67
2022/12/06 10:05:36;;;;;;;6.53;3.85;;;5.80;89.70;;;;;;9173182;19;20053;-68
2022/12/06 10:08:57;;;;;;;7.95;4.15;;;5.80;89.80;;;;;;9176499;19;20014;-67
2022/12/06 10:12:18;;;;;;;10.10;4.28;;;5.90;90.00;;;;;;9174021;19;20038;-66
2022/12/06 10:15:31;;;;;;;13.85;4.75;;;6.00;90.00;;;;;;9177911;19;20014;-67
2022/12/06 10:18:50;;;;;;;11.00;4.03;;;6.20;90.00;;;;;;9180443;19;20020;-67
2022/12/06 10:22:10;;;;;;;8.65;4.43;;;6.30;90.00;;;;;;9172199;19;20026;-65
2022/12/06 10:25:21;;;;;;;9.40;3.47;;;6.40;90.00;;;;;;9179476;19;20021;-66
2022/12/06 10:28:39;;;;;;;8.05;3.38;;;6.40;89.90;;;;;;9175417;19;20112;-67
2022/12/06 10:31:55;;;;;;;10.68;3.80;;;6.50;89.90;;;;;;9177242;19;20422;-67
2022/12/06 10:35:14;;;;;;;10.57;3.13;;;6.50;89.90;;;;;;9170916;19;20014;-66
2022/12/06 10:38:29;;;;;;;10.00;2.95;;;6.50;89.80;;;;;;9176069;19;20048;-67
2022/12/06 10:41:35;;;;;;;;;;;6.50;89.70;;;;;;9177917;19;20060;-69
2022/12/06 10:44:45;;;;;;;7.25;3.33;;;6.60;89.80;;;;;;9169697;19;19919;-67
2022/12/06 10:47:47;;;;;;;4.63;2.67;;;6.60;89.70;;;;;;9178748;19;20042;-66
2022/12/06 10:50:57;;;;;;;6.97;2.92;;;6.60;89.70;;;;;;9172777;19;20041;-68
2022/12/06 10:54:12;;;;;;;3.58;2.60;;;6.60;89.80;;;;;;9170872;19;20082;-66
2022/12/06 10:57:20;;;;;;;7.22;2.35;;;6.70;90.20;;;;;;9180138;19;20080;-65
2022/12/06 11:00:26;;;;;;;4.90;2.90;;;6.70;89.80;;;;;;9173042;19;20532;-65
2022/12/06 11:03:39;;;;;;;6.30;2.67;;;6.70;89.80;;;;;;9174886;19;20101;-65
2022/12/06 11:06:48;;;;;;;7.05;2.25;;;6.70;89.80;;;;;;9175426;19;20015;-65
2022/12/06 11:10:00;;;;;;;4.53;2.17;;;6.80;89.90;;;;;;9169507;19;20022;-66
2022/12/06 11:13:17;;;;;;;8.10;2.20;;;6.80;89.90;;;;;;9168358;19;20078;-67
2022/12/06 11:16:25;;;;;;;3.92;1.90;;;6.80;89.90;;;;;;9171429;19;20026;-65
2022/12/06 11:19:34;;;;;;;7.15;2.30;;;6.80;89.80;;;;;;9168540;19;20014;-65
2022/12/06 11:22:42;;;;;;;5.32;2.70;;;6.90;89.80;;;;;;9173105;19;20037;-65
2022/12/06 11:25:59;;;;;;;3.55;2.20;;;6.90;89.80;;;;;;9173030;19;20026;-65
2022/12/06 11:29:06;;;;;;;4.60;2.60;;;7.00;89.70;;;;;;9171193;19;20807;-65
2022/12/06 11:32:13;;;;;;;11.57;2.63;;;7.00;89.70;;;;;;9168254;19;20068;-67
2022/12/06 11:35:21;;;;;;;3.80;2.45;;;7.00;89.60;;;;;;9170834;19;20050;-65
2022/12/06 11:38:25;;;;;;;3.65;2.25;;;7.00;89.50;;;;;;9180260;19;20051;-66
2022/12/06 11:41:35;;;;;;;;;;;7.00;89.50;;;;;;9176969;19;20384;-65
2022/12/06 11:44:43;;;;;;;4.72;1.90;;;7.10;89.50;;;;;;9171272;19;19929;-67
2022/12/06 11:47:54;;;;;;;9.00;1.70;;;7.10;90.00;;;;;;9169729;19;20023;-65
2022/12/06 11:50:58;;;;;;;2.85;1.52;;;7.10;89.40;;;;;;9175704;19;20018;-64
2022/12/06 11:54:05;;;;;;;1.60;1.40;;;7.10;89.40;;;;;;9173783;19;20117;-68
2022/12/06 11:57:19;;;;;;;4.10;1.70;;;7.10;89.40;;;;;;9167928;19;20022;-65
2022/12/06 12:00:27;;;;;;;3.63;1.67;;;7.10;89.30;;;;;;9171110;19;20019;-67
2022/12/06 12:03:36;;;;;;;4.88;2.35;;;7.10;89.40;;;;;;9175377;19;20022;-63
2022/12/06 12:06:40;;;;;;;9.55;2.30;;;7.10;89.40;;;;;;9167095;19;20022;-66
2022/12/06 12:09:49;;;;;;;;;;;7.10;89.40;;;;;;9179684;19;20038;-67
2022/12/06 12:16:17;;;;;;;6.63;1.90;;;7.20;90.00;;;;;;9179853;19;20400;-67
2022/12/06 12:19:33;;;;;;;4.40;2.03;;;7.20;89.40;;;;;;9174002;19;20014;-67
2022/12/06 12:22:39;;;;;;;10.23;2.17;;;7.20;89.30;;;;;;9173158;19;20527;-66
2022/12/06 12:25:43;;;;;;;5.65;2.20;;;7.20;89.30;;;;;;9180870;19;20019;-65
2022/12/06 12:29:05;;;;;;;3.15;1.48;;;7.30;89.30;;;;;;9181754;19;20029;-67
2022/12/06 12:32:11;;;;;;;6.30;1.83;;;7.30;89.20;;;;;;9172767;19;20384;-65
2022/12/06 12:35:28;;;;;;;8.68;2.00;;;7.30;89.10;;;;;;9173351;19;20014;-68
2022/12/06 12:38:39;;;;;;;4.15;1.52;;;7.40;89.10;;;;;;9173839;19;20029;-66
2022/12/06 12:41:45;;;;;;;2.35;1.83;;;7.40;89.00;;;;;;9171248;19;20010;-67
2022/12/06 12:44:53;;;;;;;4.88;1.85;;;7.40;89.00;;;;;;9167023;19;20022;-67
2022/12/06 12:47:59;;;;;;;5.43;2.05;;;7.40;88.90;;;;;;9172212;19;20010;-68
2022/12/06 12:51:06;;;;;;;6.78;2.28;;;7.50;89.00;;;;;;9174192;19;20018;-67
2022/12/06 12:54:22;;;;;;;6.70;3.25;;;7.50;88.90;;;;;;9173673;19;20042;-70
2022/12/06 12:57:26;;;;;;;6.43;2.40;;;7.50;88.90;;;;;;9176577;19;20014;-66
2022/12/06 13:00:37;;;;;;;7.43;2.08;;;7.50;88.90;;;;;;9174999;19;20021;-65
2022/12/06 13:03:41;;;;;;;8.98;2.42;;;7.50;88.80;;;;;;9173532;19;20030;-69
2022/12/06 13:06:59;;;;;;;5.18;2.10;;;7.60;88.90;;;;;;9172943;19;20018;-67
2022/12/06 13:10:05;;;;;;;3.78;1.88;;;7.60;88.80;;;;;;9168846;19;20021;-66
2022/12/06 13:13:17;;;;;;;5.05;1.85;;;7.60;88.70;;;;;;9172282;19;20022;-66
2022/12/06 13:16:33;;;;;;;2.38;1.55;;;7.70;88.70;;;;;;9174055;19;20022;-65
2022/12/06 13:19:41;;;;;;;4.70;2.42;;;7.70;88.70;;;;;;9167980;19;20037;-66
2022/12/06 13:22:46;;;;;;;3.60;1.98;;;7.70;88.60;;;;;;9171293;19;20086;-68
2022/12/06 13:25:53;;;;;;;3.83;2.20;;;7.70;88.50;;;;;;9173688;19;20527;-65
2022/12/06 13:29:01;;;;;;;3.22;1.85;;;7.70;88.50;;;;;;9176210;19;20015;-65
2022/12/06 13:32:12;;;;;;;5.80;1.95;;;7.70;88.50;;;;;;9173417;19;20022;-66
2022/12/06 13:35:24;;;;;;;4.57;2.05;;;7.70;88.40;;;;;;9167311;19;20015;-68
2022/12/06 13:38:32;;;;;;;7.75;2.03;;;7.70;88.40;;;;;;9171962;19;20055;-65
2022/12/06 13:45:40;;;;;;;5.68;1.95;;;7.70;88.20;;;;;;9174931;19;20010;-66
2022/12/06 13:48:53;;;;;;;9.65;2.15;;;7.80;88.20;;;;;;9171055;19;20023;-65
2022/12/06 13:51:58;;;;;;;2.93;1.80;;;7.80;88.20;;;;;;9170347;19;20014;-66
2022/12/06 13:55:38;;;;;;;6.45;1.77;;;7.80;88.20;;;;;;9176567;19;20025;-65
2022/12/06 13:58:50;;;;;;;3.38;1.75;;;7.80;88.10;;;;;;9169049;19;20022;-66
2022/12/06 14:01:55;;;;;;;6.75;2.22;;;7.80;88.10;;;;;;9171321;19;20035;-67
2022/12/06 14:05:01;;;;;;;5.18;1.83;;;7.80;88.10;;;;;;9165101;19;20023;-65
2022/12/06 14:08:05;;;;;;;7.28;2.10;;;7.80;88.00;;;;;;9162650;19;20029;-65
2022/12/06 14:11:17;;;;;;;;;;;7.80;88.00;;;;;;9167915;19;20022;-65
2022/12/06 14:14:23;;;;;;;5.30;1.75;;;7.80;88.00;;;;;;9170798;19;19930;-69
2022/12/06 14:17:36;;;;;;;6.30;2.60;;;7.80;88.00;;;;;;9174902;19;20025;-65
2022/12/06 14:21:02;;;;;;;8.80;2.53;;;7.80;87.90;;;;;;9173522;19;20025;-66
2022/12/06 14:24:06;;;;;;;18.83;2.72;;;7.80;87.90;;;;;;9169548;19;20018;-67
2022/12/06 14:27:15;;;;;;;3.75;2.10;;;7.80;87.90;;;;;;9170593;19;20042;-67
2022/12/06 14:30:21;;;;;;;8.25;2.85;;;7.80;87.90;;;;;;9169905;19;20014;-64
2022/12/06 14:33:29;;;;;;;5.32;2.70;;;7.80;87.90;;;;;;9169803;19;20022;-67
2022/12/06 14:36:40;;;;;;;8.00;2.45;;;7.80;87.80;;;;;;9167198;19;20468;-66
2022/12/06 14:39:53;;;;;;;5.88;2.10;;;7.80;87.80;;;;;;9178190;19;20025;-65
2022/12/06 14:43:01;;;;;;;13.80;2.40;;;7.80;87.70;;;;;;9167884;19;20021;-69
2022/12/06 14:46:11;;;;;;;5.35;2.58;;;7.70;87.70;;;;;;9172821;19;20035;-65
2022/12/06 14:52:55;;;;;;;4.88;2.55;;;7.70;87.70;;;;;;9165219;19;20029;-68
2022/12/06 14:56:00;;;;;;;9.70;2.97;;;7.70;87.60;;;;;;9169511;19;20039;-65
2022/12/06 14:59:12;;;;;;;3.90;2.40;;;7.70;87.60;;;;;;9164012;19;20029;-66
2022/12/06 15:02:23;;;;;;;9.63;2.28;;;7.70;87.60;;;;;;9167911;19;20045;-66
2022/12/06 15:05:38;;;;;;;7.32;2.70;;;7.70;87.50;;;;;;9165283;19;20021;-66
2022/12/06 15:08:44;;;;;;;7.10;2.92;;;7.70;87.50;;;;;;9163938;19;20022;-67
2022/12/06 15:15:39;;;;;;;5.63;2.80;;;7.60;87.40;;;;;;9163127;19;20022;-68
2022/12/06 15:18:56;;;;;;;5.30;2.30;;;7.60;87.40;;;;;;9163196;19;20026;-66
2022/12/06 15:22:00;;;;;;;10.88;2.72;;;7.60;87.40;;;;;;9166727;19;20420;-66
2022/12/06 15:25:06;;;;;;;7.00;2.30;;;7.60;87.40;;;;;;9165204;19;20018;-68
2022/12/06 15:28:10;;;;;;;6.50;2.88;;;7.50;87.40;;;;;;9159785;19;20022;-65
2022/12/06 15:31:25;;;;;;;6.55;2.67;;;7.50;87.40;;;;;;9160897;19;20023;-66
2022/12/06 15:34:33;;;;;;;8.35;2.13;;;7.50;87.30;;;;;;9158405;19;20022;-67
2022/12/06 15:37:37;;;;;;;8.70;2.47;;;7.50;87.40;;;;;;9156815;19;20453;-67
2022/12/06 15:40:49;;;;;;;8.75;2.67;;;7.50;87.30;;;;;;9168123;19;20628;-65
2022/12/06 15:43:55;;;;;;;3.90;2.55;;;7.40;87.30;;;;;;9165874;19;20074;-65
2022/12/06 15:46:59;;;;;;;10.82;2.83;;;7.40;87.40;;;;;;9166365;19;20018;-66
2022/12/06 15:50:03;;;;;;;10.68;2.80;;;7.30;87.30;;;;;;9164505;19;20015;-66
2022/12/06 15:53:07;;;;;;;4.55;2.55;;;7.30;87.30;;;;;;9165492;19;20355;-67
2022/12/06 15:56:17;;;;;;;7.20;2.70;;;7.30;87.40;;;;;;9163141;19;20032;-68
2022/12/06 15:59:21;;;;;;;4.63;2.35;;;7.30;87.40;;;;;;9164389;19;20022;-67
2022/12/06 16:02:24;;;;;;;;;;;7.30;87.40;;;;;;9170523;19;20111;-66
2022/12/06 16:05:28;;;;;;;6.30;2.23;;;7.30;87.40;;;;;;9168290;19;19922;-65
2022/12/06 16:08:32;;;;;;;;;;;7.30;87.40;;;;;;9170804;19;20023;-67
2022/12/06 16:11:38;;;;;;;7.05;2.72;;;7.20;87.40;;;;;;9170914;19;19911;-67
2022/12/06 16:14:42;;;;;;;6.70;2.70;;;7.20;87.40;;;;;;9167158;19;20402;-68
2022/12/06 16:17:46;;;;;;;7.28;2.75;;;7.20;87.40;;;;;;9170107;19;20030;-68
2022/12/06 16:20:50;;;;;;;5.10;2.55;;;7.20;87.50;;;;;;9171500;19;20055;-65
2022/12/06 16:24:03;;;;;;;7.25;2.28;;;7.20;87.50;;;;;;9174490;19;20472;-67
2022/12/06 16:27:19;;;;;;;10.13;4.03;;;7.20;87.50;;;;;;9170560;19;20022;-67
2022/12/06 16:30:32;;;;;;;11.30;3.88;;;7.20;87.50;;;;;;9172062;19;20467;-66
2022/12/06 16:33:36;;;;;;;4.72;3.03;;;7.20;87.50;;;;;;9174101;19;20497;-68
2022/12/06 16:36:55;;;;;;;;;;;7.20;87.50;;;;;;9173609;19;20015;-66
2022/12/06 16:39:59;;;;;;;8.18;2.85;;;7.20;87.50;;;;;;9169739;19;19933;-65
2022/12/06 16:43:05;;;;;;;7.57;3.35;;;7.20;87.50;;;;;;9166659;19;20018;-66
2022/12/06 16:46:24;;;;;;;9.30;3.65;;;7.20;87.60;;;;;;9172255;19;20122;-67
2022/12/06 16:49:29;;;;;;;9.95;3.35;;;7.20;87.60;;;;;;9169442;19;20029;-69
2022/12/06 16:52:51;;;;;;;7.03;3.30;;;7.10;87.60;;;;;;9169169;19;20014;-66
2022/12/06 16:55:54;;;;;;;6.13;3.20;;;7.20;87.80;;;;;;9162303;19;20018;-67
2022/12/06 16:59:00;;;;;;;5.97;3.47;;;7.20;87.70;;;;;;9171957;19;20360;-66
2022/12/06 17:02:04;;;;;;;8.38;3.00;;;7.20;87.70;;;;;;9172069;19;20363;-68
2022/12/06 17:05:20;;;;;;;10.07;3.63;;;7.10;87.70;;;;;;9169537;19;20535;-66
2022/12/06 17:08:23;;;;;;;11.80;3.58;;;7.20;87.70;;;;;;9171455;19;20034;-68
2022/12/06 17:14:47;;;;;;;8.57;3.92;;;7.20;87.70;;;;;;9168226;19;19941;-66